sensor_id;sensor_type;location;lat;lon;timestamp;P1;durP1;ratioP1;P2;durP2;ratioP2
505;SDS011;551;48.524;9.056;2022-10-01T00:00:47;7.37;;;4.53;;
505;SDS011;551;48.524;9.056;2022-10-01T00:03:14;9.93;;;4.97;;
505;SDS011;551;48.524;9.056;2022-10-01T00:05:40;5.63;;;4.20;;
505;SDS011;551;48.524;9.056;2022-10-01T00:08:05;4.37;;;3.97;;
505;SDS011;551;48.524;9.056;2022-10-01T00:10:31;4.83;;;4.37;;
505;SDS011;551;48.524;9.056;2022-10-01T00:12:57;5.20;;;4.70;;
505;SDS011;551;48.524;9.056;2022-10-01T00:15:23;5.17;;;4.67;;
505;SDS011;551;48.524;9.056;2022-10-01T00:17:55;5.10;;;4.60;;
505;SDS011;551;48.524;9.056;2022-10-01T00:20:21;4.83;;;4.03;;
505;SDS011;551;48.524;9.056;2022-10-01T00:22:47;6.13;;;4.57;;
505;SDS011;551;48.524;9.056;2022-10-01T00:25:13;6.60;;;4.20;;
505;SDS011;551;48.524;9.056;2022-10-01T00:27:38;6.90;;;4.97;;
505;SDS011;551;48.524;9.056;2022-10-01T00:30:04;13.83;;;5.20;;
505;SDS011;551;48.524;9.056;2022-10-01T00:32:31;5.90;;;5.10;;
505;SDS011;551;48.524;9.056;2022-10-01T00:35:00;9.97;;;7.60;;
505;SDS011;551;48.524;9.056;2022-10-01T00:37:27;6.10;;;5.57;;
505;SDS011;551;48.524;9.056;2022-10-01T00:39:53;9.93;;;5.43;;
505;SDS011;551;48.524;9.056;2022-10-01T00:42:20;6.50;;;5.70;;
505;SDS011;551;48.524;9.056;2022-10-01T00:44:50;9.03;;;5.60;;
505;SDS011;551;48.524;9.056;2022-10-01T00:47:24;8.07;;;6.50;;
505;SDS011;551;48.524;9.056;2022-10-01T00:49:59;5.60;;;5.10;;
505;SDS011;551;48.524;9.056;2022-10-01T00:52:31;7.50;;;6.67;;
505;SDS011;551;48.524;9.056;2022-10-01T00:55:08;11.73;;;5.77;;
505;SDS011;551;48.524;9.056;2022-10-01T00:57:37;13.43;;;6.30;;
505;SDS011;551;48.524;9.056;2022-10-01T01:00:04;8.00;;;6.07;;
505;SDS011;551;48.524;9.056;2022-10-01T01:02:37;8.20;;;5.90;;
505;SDS011;551;48.524;9.056;2022-10-01T01:05:02;8.93;;;6.73;;
505;SDS011;551;48.524;9.056;2022-10-01T01:07:29;7.33;;;6.07;;
505;SDS011;551;48.524;9.056;2022-10-01T01:09:56;8.97;;;5.50;;
505;SDS011;551;48.524;9.056;2022-10-01T01:12:34;6.80;;;6.07;;
505;SDS011;551;48.524;9.056;2022-10-01T01:17:54;6.13;;;5.60;;
505;SDS011;551;48.524;9.056;2022-10-01T01:20:37;5.97;;;5.37;;
505;SDS011;551;48.524;9.056;2022-10-01T01:25:44;6.03;;;5.43;;
505;SDS011;551;48.524;9.056;2022-10-01T01:28:38;11.40;;;6.10;;
505;SDS011;551;48.524;9.056;2022-10-01T01:31:16;6.50;;;5.80;;
505;SDS011;551;48.524;9.056;2022-10-01T01:33:48;6.57;;;5.00;;
505;SDS011;551;48.524;9.056;2022-10-01T01:36:18;5.77;;;4.97;;
505;SDS011;551;48.524;9.056;2022-10-01T01:38:56;5.97;;;5.23;;
505;SDS011;551;48.524;9.056;2022-10-01T01:41:26;7.00;;;5.63;;
505;SDS011;551;48.524;9.056;2022-10-01T01:43:56;7.43;;;5.57;;
505;SDS011;551;48.524;9.056;2022-10-01T01:46:25;6.03;;;5.43;;
505;SDS011;551;48.524;9.056;2022-10-01T01:48:55;6.67;;;5.90;;
505;SDS011;551;48.524;9.056;2022-10-01T01:51:23;6.20;;;5.20;;
505;SDS011;551;48.524;9.056;2022-10-01T01:53:57;8.40;;;6.83;;
505;SDS011;551;48.524;9.056;2022-10-01T01:56:23;6.77;;;6.07;;
505;SDS011;551;48.524;9.056;2022-10-01T01:58:49;8.03;;;6.00;;
505;SDS011;551;48.524;9.056;2022-10-01T02:12:37;11.50;;;8.23;;
505;SDS011;551;48.524;9.056;2022-10-01T02:18:24;12.50;;;9.43;;
505;SDS011;551;48.524;9.056;2022-10-01T02:26:26;8.93;;;7.50;;
505;SDS011;551;48.524;9.056;2022-10-01T02:28:54;10.60;;;7.47;;
505;SDS011;551;48.524;9.056;2022-10-01T02:31:23;9.30;;;6.77;;
505;SDS011;551;48.524;9.056;2022-10-01T02:33:50;7.67;;;6.83;;
505;SDS011;551;48.524;9.056;2022-10-01T02:36:17;10.03;;;7.50;;
505;SDS011;551;48.524;9.056;2022-10-01T02:38:45;8.40;;;7.50;;
505;SDS011;551;48.524;9.056;2022-10-01T02:41:14;11.53;;;7.70;;
505;SDS011;551;48.524;9.056;2022-10-01T02:46:38;9.90;;;7.80;;
505;SDS011;551;48.524;9.056;2022-10-01T02:49:17;7.97;;;7.23;;
505;SDS011;551;48.524;9.056;2022-10-01T02:54:34;8.53;;;7.73;;
505;SDS011;551;48.524;9.056;2022-10-01T02:57:17;9.20;;;8.30;;
505;SDS011;551;48.524;9.056;2022-10-01T02:59:53;8.87;;;6.90;;
505;SDS011;551;48.524;9.056;2022-10-01T03:02:21;8.97;;;6.80;;
505;SDS011;551;48.524;9.056;2022-10-01T03:04:49;7.73;;;6.30;;
505;SDS011;551;48.524;9.056;2022-10-01T03:07:15;7.70;;;6.80;;
505;SDS011;551;48.524;9.056;2022-10-01T03:09:40;9.63;;;6.47;;
505;SDS011;551;48.524;9.056;2022-10-01T03:12:06;7.30;;;5.87;;
505;SDS011;551;48.524;9.056;2022-10-01T03:14:32;11.80;;;6.20;;
505;SDS011;551;48.524;9.056;2022-10-01T03:16:58;7.07;;;6.13;;
505;SDS011;551;48.524;9.056;2022-10-01T03:19:23;13.43;;;7.40;;
505;SDS011;551;48.524;9.056;2022-10-01T03:21:49;9.70;;;7.60;;
505;SDS011;551;48.524;9.056;2022-10-01T03:24:14;8.40;;;7.37;;
505;SDS011;551;48.524;9.056;2022-10-01T03:26:40;8.40;;;6.80;;
505;SDS011;551;48.524;9.056;2022-10-01T03:29:06;9.30;;;6.57;;
505;SDS011;551;48.524;9.056;2022-10-01T03:31:31;8.30;;;7.40;;
505;SDS011;551;48.524;9.056;2022-10-01T03:33:57;9.73;;;7.27;;
505;SDS011;551;48.524;9.056;2022-10-01T03:36:24;8.83;;;6.97;;
505;SDS011;551;48.524;9.056;2022-10-01T03:38:50;10.67;;;6.87;;
505;SDS011;551;48.524;9.056;2022-10-01T03:41:16;8.77;;;7.93;;
505;SDS011;551;48.524;9.056;2022-10-01T03:43:41;7.77;;;6.23;;
505;SDS011;551;48.524;9.056;2022-10-01T03:46:07;12.03;;;7.70;;
505;SDS011;551;48.524;9.056;2022-10-01T03:48:32;7.87;;;6.57;;
505;SDS011;551;48.524;9.056;2022-10-01T03:50:58;8.17;;;7.37;;
505;SDS011;551;48.524;9.056;2022-10-01T03:53:24;10.13;;;6.63;;
505;SDS011;551;48.524;9.056;2022-10-01T03:55:51;7.13;;;6.47;;
505;SDS011;551;48.524;9.056;2022-10-01T03:58:17;12.70;;;6.90;;
505;SDS011;551;48.524;9.056;2022-10-01T04:00:44;8.50;;;7.10;;
505;SDS011;551;48.524;9.056;2022-10-01T04:03:11;8.33;;;6.40;;
505;SDS011;551;48.524;9.056;2022-10-01T04:05:37;9.10;;;7.33;;
505;SDS011;551;48.524;9.056;2022-10-01T04:08:03;8.10;;;6.13;;
505;SDS011;551;48.524;9.056;2022-10-01T04:10:29;8.37;;;6.97;;
505;SDS011;551;48.524;9.056;2022-10-01T04:12:54;10.27;;;7.07;;
505;SDS011;551;48.524;9.056;2022-10-01T04:15:20;8.87;;;7.20;;
505;SDS011;551;48.524;9.056;2022-10-01T04:17:46;10.53;;;7.67;;
505;SDS011;551;48.524;9.056;2022-10-01T04:20:12;9.87;;;7.03;;
505;SDS011;551;48.524;9.056;2022-10-01T04:22:39;7.70;;;6.90;;
505;SDS011;551;48.524;9.056;2022-10-01T04:25:05;9.50;;;6.30;;
505;SDS011;551;48.524;9.056;2022-10-01T04:27:31;8.10;;;6.67;;
505;SDS011;551;48.524;9.056;2022-10-01T04:29:57;8.60;;;6.47;;
505;SDS011;551;48.524;9.056;2022-10-01T04:32:22;9.83;;;6.83;;
505;SDS011;551;48.524;9.056;2022-10-01T04:34:48;7.97;;;6.77;;
505;SDS011;551;48.524;9.056;2022-10-01T04:37:17;8.73;;;6.87;;
505;SDS011;551;48.524;9.056;2022-10-01T04:39:43;9.17;;;6.20;;
505;SDS011;551;48.524;9.056;2022-10-01T04:42:08;7.57;;;6.00;;
505;SDS011;551;48.524;9.056;2022-10-01T04:44:34;10.93;;;6.73;;
505;SDS011;551;48.524;9.056;2022-10-01T04:46:59;7.90;;;6.47;;
505;SDS011;551;48.524;9.056;2022-10-01T04:49:25;10.43;;;6.90;;
505;SDS011;551;48.524;9.056;2022-10-01T04:51:51;8.20;;;6.57;;
505;SDS011;551;48.524;9.056;2022-10-01T04:54:16;9.10;;;7.03;;
505;SDS011;551;48.524;9.056;2022-10-01T04:56:42;8.27;;;6.67;;
505;SDS011;551;48.524;9.056;2022-10-01T04:59:08;10.13;;;6.47;;
505;SDS011;551;48.524;9.056;2022-10-01T05:01:33;8.87;;;6.63;;
505;SDS011;551;48.524;9.056;2022-10-01T05:03:58;11.77;;;6.23;;
505;SDS011;551;48.524;9.056;2022-10-01T05:06:24;9.10;;;7.10;;
505;SDS011;551;48.524;9.056;2022-10-01T05:08:50;9.23;;;7.60;;
505;SDS011;551;48.524;9.056;2022-10-01T05:11:16;7.93;;;7.07;;
505;SDS011;551;48.524;9.056;2022-10-01T05:13:41;10.60;;;6.70;;
505;SDS011;551;48.524;9.056;2022-10-01T05:16:07;8.37;;;7.00;;
505;SDS011;551;48.524;9.056;2022-10-01T05:18:33;7.53;;;6.20;;
505;SDS011;551;48.524;9.056;2022-10-01T05:21:02;10.40;;;7.30;;
505;SDS011;551;48.524;9.056;2022-10-01T05:23:29;7.30;;;6.50;;
505;SDS011;551;48.524;9.056;2022-10-01T05:25:55;10.13;;;7.10;;
505;SDS011;551;48.524;9.056;2022-10-01T05:28:20;11.00;;;7.43;;
505;SDS011;551;48.524;9.056;2022-10-01T05:30:46;7.17;;;5.60;;
505;SDS011;551;48.524;9.056;2022-10-01T05:33:11;6.70;;;6.10;;
505;SDS011;551;48.524;9.056;2022-10-01T05:35:37;8.03;;;6.30;;
505;SDS011;551;48.524;9.056;2022-10-01T05:38:04;8.40;;;6.10;;
505;SDS011;551;48.524;9.056;2022-10-01T05:40:29;6.27;;;5.67;;
505;SDS011;551;48.524;9.056;2022-10-01T05:42:55;5.70;;;4.80;;
505;SDS011;551;48.524;9.056;2022-10-01T05:45:22;10.40;;;6.30;;
505;SDS011;551;48.524;9.056;2022-10-01T05:47:54;7.13;;;6.13;;
505;SDS011;551;48.524;9.056;2022-10-01T05:50:22;9.73;;;6.23;;
505;SDS011;551;48.524;9.056;2022-10-01T05:52:49;8.70;;;6.80;;
505;SDS011;551;48.524;9.056;2022-10-01T05:55:17;7.17;;;6.47;;
505;SDS011;551;48.524;9.056;2022-10-01T05:57:43;5.80;;;5.30;;
505;SDS011;551;48.524;9.056;2022-10-01T06:00:09;6.70;;;5.70;;
505;SDS011;551;48.524;9.056;2022-10-01T06:02:36;7.77;;;6.00;;
505;SDS011;551;48.524;9.056;2022-10-01T06:05:02;7.70;;;5.83;;
505;SDS011;551;48.524;9.056;2022-10-01T06:07:30;7.30;;;5.20;;
505;SDS011;551;48.524;9.056;2022-10-01T06:09:56;5.97;;;5.17;;
505;SDS011;551;48.524;9.056;2022-10-01T06:12:21;5.90;;;4.90;;
505;SDS011;551;48.524;9.056;2022-10-01T06:14:47;6.27;;;5.00;;
505;SDS011;551;48.524;9.056;2022-10-01T06:17:13;5.43;;;4.93;;
505;SDS011;551;48.524;9.056;2022-10-01T06:19:38;6.50;;;4.73;;
505;SDS011;551;48.524;9.056;2022-10-01T06:22:03;4.30;;;3.90;;
505;SDS011;551;48.524;9.056;2022-10-01T06:24:29;6.30;;;5.37;;
505;SDS011;551;48.524;9.056;2022-10-01T06:26:55;3.83;;;3.53;;
505;SDS011;551;48.524;9.056;2022-10-01T06:29:21;2.97;;;2.77;;
505;SDS011;551;48.524;9.056;2022-10-01T06:31:47;5.27;;;3.50;;
505;SDS011;551;48.524;9.056;2022-10-01T06:34:12;3.27;;;3.00;;
505;SDS011;551;48.524;9.056;2022-10-01T06:36:38;3.40;;;3.10;;
505;SDS011;551;48.524;9.056;2022-10-01T06:39:03;3.73;;;2.40;;
505;SDS011;551;48.524;9.056;2022-10-01T06:41:29;3.40;;;2.80;;
505;SDS011;551;48.524;9.056;2022-10-01T06:43:54;3.23;;;3.03;;
505;SDS011;551;48.524;9.056;2022-10-01T06:46:20;3.43;;;2.60;;
505;SDS011;551;48.524;9.056;2022-10-01T06:48:45;2.73;;;2.53;;
505;SDS011;551;48.524;9.056;2022-10-01T06:51:11;4.00;;;2.67;;
505;SDS011;551;48.524;9.056;2022-10-01T06:53:36;2.43;;;2.23;;
505;SDS011;551;48.524;9.056;2022-10-01T06:56:03;3.73;;;2.97;;
505;SDS011;551;48.524;9.056;2022-10-01T06:58:30;3.90;;;3.50;;
505;SDS011;551;48.524;9.056;2022-10-01T07:00:59;3.50;;;3.20;;
505;SDS011;551;48.524;9.056;2022-10-01T07:03:26;3.90;;;3.57;;
505;SDS011;551;48.524;9.056;2022-10-01T07:05:52;4.67;;;3.80;;
505;SDS011;551;48.524;9.056;2022-10-01T07:08:18;4.33;;;3.10;;
505;SDS011;551;48.524;9.056;2022-10-01T07:10:44;3.30;;;3.00;;
505;SDS011;551;48.524;9.056;2022-10-01T07:13:11;3.93;;;3.17;;
505;SDS011;551;48.524;9.056;2022-10-01T07:15:38;3.80;;;3.50;;
505;SDS011;551;48.524;9.056;2022-10-01T07:18:04;2.70;;;2.20;;
505;SDS011;551;48.524;9.056;2022-10-01T07:20:32;5.27;;;2.60;;
505;SDS011;551;48.524;9.056;2022-10-01T07:23:03;2.20;;;2.00;;
505;SDS011;551;48.524;9.056;2022-10-01T07:25:29;6.13;;;1.60;;
505;SDS011;551;48.524;9.056;2022-10-01T07:27:56;3.77;;;2.10;;
505;SDS011;551;48.524;9.056;2022-10-01T07:30:26;2.00;;;1.80;;
505;SDS011;551;48.524;9.056;2022-10-01T07:32:52;2.17;;;1.90;;
505;SDS011;551;48.524;9.056;2022-10-01T07:35:18;1.70;;;1.53;;
505;SDS011;551;48.524;9.056;2022-10-01T07:37:48;1.60;;;1.50;;
505;SDS011;551;48.524;9.056;2022-10-01T07:40:14;2.30;;;2.10;;
505;SDS011;551;48.524;9.056;2022-10-01T07:42:41;1.80;;;1.70;;
505;SDS011;551;48.524;9.056;2022-10-01T07:45:07;2.00;;;1.90;;
505;SDS011;551;48.524;9.056;2022-10-01T07:47:34;2.63;;;1.70;;
505;SDS011;551;48.524;9.056;2022-10-01T07:49:59;2.33;;;1.53;;
505;SDS011;551;48.524;9.056;2022-10-01T07:52:25;3.10;;;1.77;;
505;SDS011;551;48.524;9.056;2022-10-01T07:54:50;2.67;;;2.17;;
505;SDS011;551;48.524;9.056;2022-10-01T07:57:16;1.50;;;1.40;;
505;SDS011;551;48.524;9.056;2022-10-01T07:59:41;2.87;;;1.50;;
505;SDS011;551;48.524;9.056;2022-10-01T08:02:14;2.00;;;1.80;;
505;SDS011;551;48.524;9.056;2022-10-01T08:04:41;1.80;;;1.70;;
505;SDS011;551;48.524;9.056;2022-10-01T08:07:25;4.87;;;2.20;;
505;SDS011;551;48.524;9.056;2022-10-01T08:09:50;2.50;;;2.30;;
505;SDS011;551;48.524;9.056;2022-10-01T08:12:16;4.70;;;2.00;;
505;SDS011;551;48.524;9.056;2022-10-01T08:14:43;2.27;;;2.07;;
505;SDS011;551;48.524;9.056;2022-10-01T08:17:10;2.30;;;2.10;;
505;SDS011;551;48.524;9.056;2022-10-01T08:19:35;1.60;;;1.50;;
505;SDS011;551;48.524;9.056;2022-10-01T08:22:01;1.50;;;1.40;;
505;SDS011;551;48.524;9.056;2022-10-01T08:24:26;2.53;;;1.63;;
505;SDS011;551;48.524;9.056;2022-10-01T08:26:52;2.87;;;1.80;;
505;SDS011;551;48.524;9.056;2022-10-01T08:29:21;1.73;;;1.63;;
505;SDS011;551;48.524;9.056;2022-10-01T08:31:47;1.80;;;1.70;;
505;SDS011;551;48.524;9.056;2022-10-01T08:34:13;1.97;;;1.67;;
505;SDS011;551;48.524;9.056;2022-10-01T08:36:38;1.43;;;1.33;;
505;SDS011;551;48.524;9.056;2022-10-01T08:39:04;2.23;;;1.80;;
505;SDS011;551;48.524;9.056;2022-10-01T08:41:39;2.07;;;1.60;;
505;SDS011;551;48.524;9.056;2022-10-01T08:44:17;1.67;;;1.57;;
505;SDS011;551;48.524;9.056;2022-10-01T08:46:45;1.80;;;1.70;;
505;SDS011;551;48.524;9.056;2022-10-01T08:51:54;3.10;;;1.60;;
505;SDS011;551;48.524;9.056;2022-10-01T08:57:00;2.00;;;1.80;;
505;SDS011;551;48.524;9.056;2022-10-01T08:59:34;2.03;;;1.80;;
505;SDS011;551;48.524;9.056;2022-10-01T09:02:21;1.90;;;1.80;;
505;SDS011;551;48.524;9.056;2022-10-01T09:05:00;2.00;;;1.50;;
505;SDS011;551;48.524;9.056;2022-10-01T09:16:27;1.93;;;1.80;;
505;SDS011;551;48.524;9.056;2022-10-01T09:19:05;2.00;;;1.80;;
505;SDS011;551;48.524;9.056;2022-10-01T09:24:26;1.67;;;1.30;;
505;SDS011;551;48.524;9.056;2022-10-01T09:27:10;1.70;;;1.60;;
505;SDS011;551;48.524;9.056;2022-10-01T09:29:43;1.60;;;1.50;;
505;SDS011;551;48.524;9.056;2022-10-01T09:32:14;1.73;;;1.63;;
505;SDS011;551;48.524;9.056;2022-10-01T09:34:44;3.03;;;1.50;;
505;SDS011;551;48.524;9.056;2022-10-01T09:40:07;2.13;;;1.63;;
505;SDS011;551;48.524;9.056;2022-10-01T09:42:36;1.57;;;1.47;;
505;SDS011;551;48.524;9.056;2022-10-01T09:45:02;1.73;;;1.63;;
505;SDS011;551;48.524;9.056;2022-10-01T09:47:29;2.30;;;1.43;;
505;SDS011;551;48.524;9.056;2022-10-01T09:49:57;2.13;;;1.60;;
505;SDS011;551;48.524;9.056;2022-10-01T09:52:29;3.20;;;1.63;;
505;SDS011;551;48.524;9.056;2022-10-01T09:57:45;2.80;;;1.80;;
505;SDS011;551;48.524;9.056;2022-10-01T10:00:17;1.60;;;1.50;;
505;SDS011;551;48.524;9.056;2022-10-01T10:02:45;2.27;;;1.70;;
505;SDS011;551;48.524;9.056;2022-10-01T10:05:16;1.60;;;1.50;;
505;SDS011;551;48.524;9.056;2022-10-01T10:07:53;1.47;;;1.37;;
505;SDS011;551;48.524;9.056;2022-10-01T10:10:28;2.30;;;1.13;;
505;SDS011;551;48.524;9.056;2022-10-01T10:15:38;1.40;;;1.30;;
505;SDS011;551;48.524;9.056;2022-10-01T10:18:13;1.93;;;1.83;;
505;SDS011;551;48.524;9.056;2022-10-01T10:20:43;1.40;;;1.30;;
505;SDS011;551;48.524;9.056;2022-10-01T10:23:15;1.57;;;1.20;;
505;SDS011;551;48.524;9.056;2022-10-01T10:25:42;1.60;;;1.37;;
505;SDS011;551;48.524;9.056;2022-10-01T10:28:18;1.70;;;1.60;;
505;SDS011;551;48.524;9.056;2022-10-01T10:30:45;2.40;;;1.50;;
505;SDS011;551;48.524;9.056;2022-10-01T10:33:12;2.23;;;1.43;;
505;SDS011;551;48.524;9.056;2022-10-01T10:35:38;2.17;;;1.40;;
505;SDS011;551;48.524;9.056;2022-10-01T10:38:04;1.50;;;1.40;;
505;SDS011;551;48.524;9.056;2022-10-01T10:40:32;1.87;;;1.67;;
505;SDS011;551;48.524;9.056;2022-10-01T10:43:04;1.40;;;1.30;;
505;SDS011;551;48.524;9.056;2022-10-01T10:45:41;1.63;;;1.53;;
505;SDS011;551;48.524;9.056;2022-10-01T10:48:10;1.83;;;1.70;;
505;SDS011;551;48.524;9.056;2022-10-01T10:50:42;1.67;;;1.57;;
505;SDS011;551;48.524;9.056;2022-10-01T10:53:17;2.07;;;1.70;;
505;SDS011;551;48.524;9.056;2022-10-01T10:55:52;1.30;;;1.20;;
505;SDS011;551;48.524;9.056;2022-10-01T10:58:26;1.47;;;1.37;;
505;SDS011;551;48.524;9.056;2022-10-01T11:00:57;2.80;;;1.83;;
505;SDS011;551;48.524;9.056;2022-10-01T11:03:34;2.00;;;1.53;;
505;SDS011;551;48.524;9.056;2022-10-01T11:06:03;1.50;;;1.40;;
505;SDS011;551;48.524;9.056;2022-10-01T11:08:35;1.57;;;1.47;;
505;SDS011;551;48.524;9.056;2022-10-01T11:11:05;1.50;;;1.40;;
505;SDS011;551;48.524;9.056;2022-10-01T11:16:20;2.10;;;1.50;;
505;SDS011;551;48.524;9.056;2022-10-01T11:19:06;2.07;;;1.90;;
505;SDS011;551;48.524;9.056;2022-10-01T11:32:54;2.93;;;1.63;;
505;SDS011;551;48.524;9.056;2022-10-01T11:41:30;2.60;;;1.77;;
505;SDS011;551;48.524;9.056;2022-10-01T11:44:17;1.67;;;1.57;;
505;SDS011;551;48.524;9.056;2022-10-01T11:47:04;2.47;;;1.53;;
505;SDS011;551;48.524;9.056;2022-10-01T11:49:39;2.50;;;1.27;;
505;SDS011;551;48.524;9.056;2022-10-01T11:52:22;2.00;;;1.60;;
505;SDS011;551;48.524;9.056;2022-10-01T11:55:08;3.60;;;1.70;;
505;SDS011;551;48.524;9.056;2022-10-01T11:57:59;1.30;;;1.20;;
505;SDS011;551;48.524;9.056;2022-10-01T12:01:08;1.70;;;1.60;;
505;SDS011;551;48.524;9.056;2022-10-01T12:04:23;1.63;;;1.47;;
505;SDS011;551;48.524;9.056;2022-10-01T12:09:13;5.73;;;2.07;;
505;SDS011;551;48.524;9.056;2022-10-01T12:11:59;2.37;;;1.77;;
505;SDS011;551;48.524;9.056;2022-10-01T12:14:36;1.67;;;1.57;;
505;SDS011;551;48.524;9.056;2022-10-01T12:19:38;1.40;;;1.30;;
505;SDS011;551;48.524;9.056;2022-10-01T12:22:13;1.60;;;1.50;;
505;SDS011;551;48.524;9.056;2022-10-01T12:24:49;1.53;;;1.30;;
505;SDS011;551;48.524;9.056;2022-10-01T12:27:25;3.20;;;1.83;;
505;SDS011;551;48.524;9.056;2022-10-01T12:30:15;1.87;;;1.70;;
505;SDS011;551;48.524;9.056;2022-10-01T12:38:24;2.73;;;2.17;;
505;SDS011;551;48.524;9.056;2022-10-01T12:43:55;1.77;;;1.67;;
505;SDS011;551;48.524;9.056;2022-10-01T12:46:37;1.70;;;1.60;;
505;SDS011;551;48.524;9.056;2022-10-01T12:52:13;1.83;;;1.60;;
505;SDS011;551;48.524;9.056;2022-10-01T12:55:05;1.53;;;1.30;;
505;SDS011;551;48.524;9.056;2022-10-01T12:58:07;1.23;;;1.20;;
505;SDS011;551;48.524;9.056;2022-10-01T13:01:19;1.20;;;1.10;;
505;SDS011;551;48.524;9.056;2022-10-01T13:06:14;1.53;;;1.43;;
505;SDS011;551;48.524;9.056;2022-10-01T13:08:53;3.13;;;1.53;;
505;SDS011;551;48.524;9.056;2022-10-01T13:14:15;1.90;;;1.37;;
505;SDS011;551;48.524;9.056;2022-10-01T13:16:43;2.73;;;1.87;;
505;SDS011;551;48.524;9.056;2022-10-01T13:21:54;1.40;;;1.30;;
505;SDS011;551;48.524;9.056;2022-10-01T13:24:34;1.10;;;1.00;;
505;SDS011;551;48.524;9.056;2022-10-01T13:27:12;4.20;;;1.77;;
505;SDS011;551;48.524;9.056;2022-10-01T13:32:23;1.50;;;1.40;;
505;SDS011;551;48.524;9.056;2022-10-01T13:34:53;1.00;;;1.00;;
505;SDS011;551;48.524;9.056;2022-10-01T13:39:54;1.53;;;1.30;;
505;SDS011;551;48.524;9.056;2022-10-01T13:42:21;1.63;;;1.30;;
505;SDS011;551;48.524;9.056;2022-10-01T13:44:59;1.47;;;1.37;;
505;SDS011;551;48.524;9.056;2022-10-01T13:47:33;1.33;;;1.10;;
505;SDS011;551;48.524;9.056;2022-10-01T13:50:06;1.40;;;1.30;;
505;SDS011;551;48.524;9.056;2022-10-01T13:52:42;1.70;;;1.20;;
505;SDS011;551;48.524;9.056;2022-10-01T13:55:20;1.30;;;1.10;;
505;SDS011;551;48.524;9.056;2022-10-01T13:58:05;1.20;;;1.10;;
505;SDS011;551;48.524;9.056;2022-10-01T14:00:48;3.53;;;1.50;;
505;SDS011;551;48.524;9.056;2022-10-01T14:03:25;1.23;;;1.13;;
505;SDS011;551;48.524;9.056;2022-10-01T14:05:58;0.97;;;0.93;;
505;SDS011;551;48.524;9.056;2022-10-01T14:08:30;1.27;;;1.23;;
505;SDS011;551;48.524;9.056;2022-10-01T14:11:04;1.20;;;1.00;;
505;SDS011;551;48.524;9.056;2022-10-01T14:13:53;1.00;;;1.00;;
505;SDS011;551;48.524;9.056;2022-10-01T14:16:42;1.00;;;1.00;;
505;SDS011;551;48.524;9.056;2022-10-01T14:19:17;1.40;;;1.30;;
505;SDS011;551;48.524;9.056;2022-10-01T14:24:49;1.33;;;1.10;;
505;SDS011;551;48.524;9.056;2022-10-01T14:27:41;1.20;;;1.10;;
505;SDS011;551;48.524;9.056;2022-10-01T14:30:19;0.90;;;0.90;;
505;SDS011;551;48.524;9.056;2022-10-01T14:38:02;1.10;;;1.10;;
505;SDS011;551;48.524;9.056;2022-10-01T14:40:38;2.67;;;1.87;;
505;SDS011;551;48.524;9.056;2022-10-01T14:45:56;1.50;;;1.40;;
505;SDS011;551;48.524;9.056;2022-10-01T14:48:27;2.30;;;1.30;;
505;SDS011;551;48.524;9.056;2022-10-01T14:50:59;2.43;;;1.20;;
505;SDS011;551;48.524;9.056;2022-10-01T14:53:28;2.43;;;1.70;;
505;SDS011;551;48.524;9.056;2022-10-01T14:55:56;2.77;;;1.30;;
505;SDS011;551;48.524;9.056;2022-10-01T14:58:35;1.33;;;1.23;;
505;SDS011;551;48.524;9.056;2022-10-01T15:01:05;1.40;;;1.30;;
505;SDS011;551;48.524;9.056;2022-10-01T15:03:35;1.30;;;1.20;;
505;SDS011;551;48.524;9.056;2022-10-01T15:06:03;1.20;;;1.10;;
505;SDS011;551;48.524;9.056;2022-10-01T15:08:35;1.20;;;1.10;;
505;SDS011;551;48.524;9.056;2022-10-01T15:11:13;10.23;;;1.23;;
505;SDS011;551;48.524;9.056;2022-10-01T15:13:42;1.90;;;1.40;;
505;SDS011;551;48.524;9.056;2022-10-01T15:16:14;2.10;;;1.10;;
505;SDS011;551;48.524;9.056;2022-10-01T15:18:58;2.07;;;1.70;;
505;SDS011;551;48.524;9.056;2022-10-01T15:23:54;1.93;;;1.40;;
505;SDS011;551;48.524;9.056;2022-10-01T15:26:22;3.43;;;1.90;;
505;SDS011;551;48.524;9.056;2022-10-01T15:29:03;1.73;;;1.27;;
505;SDS011;551;48.524;9.056;2022-10-01T15:31:31;5.97;;;2.60;;
505;SDS011;551;48.524;9.056;2022-10-01T15:34:00;1.40;;;1.30;;
505;SDS011;551;48.524;9.056;2022-10-01T15:36:27;2.10;;;1.50;;
505;SDS011;551;48.524;9.056;2022-10-01T15:38:53;2.63;;;1.70;;
505;SDS011;551;48.524;9.056;2022-10-01T15:41:21;1.80;;;1.30;;
505;SDS011;551;48.524;9.056;2022-10-01T15:43:49;1.83;;;1.07;;
505;SDS011;551;48.524;9.056;2022-10-01T15:48:40;1.23;;;1.13;;
505;SDS011;551;48.524;9.056;2022-10-01T15:53:49;1.37;;;1.23;;
505;SDS011;551;48.524;9.056;2022-10-01T15:56:17;1.83;;;1.50;;
505;SDS011;551;48.524;9.056;2022-10-01T15:58:52;1.50;;;1.40;;
505;SDS011;551;48.524;9.056;2022-10-01T16:01:23;1.30;;;1.20;;
505;SDS011;551;48.524;9.056;2022-10-01T16:04:01;1.43;;;1.30;;
505;SDS011;551;48.524;9.056;2022-10-01T16:06:46;1.30;;;1.20;;
505;SDS011;551;48.524;9.056;2022-10-01T16:09:16;1.80;;;1.20;;
505;SDS011;551;48.524;9.056;2022-10-01T16:17:05;1.57;;;1.47;;
505;SDS011;551;48.524;9.056;2022-10-01T16:19:46;1.57;;;1.37;;
505;SDS011;551;48.524;9.056;2022-10-01T16:22:15;1.10;;;1.00;;
505;SDS011;551;48.524;9.056;2022-10-01T16:24:48;1.50;;;1.20;;
505;SDS011;551;48.524;9.056;2022-10-01T16:27:16;1.57;;;1.40;;
505;SDS011;551;48.524;9.056;2022-10-01T16:29:53;1.37;;;1.27;;
505;SDS011;551;48.524;9.056;2022-10-01T16:32:23;4.33;;;2.13;;
505;SDS011;551;48.524;9.056;2022-10-01T16:34:48;1.63;;;1.53;;
505;SDS011;551;48.524;9.056;2022-10-01T16:37:14;2.50;;;2.03;;
505;SDS011;551;48.524;9.056;2022-10-01T16:39:40;2.03;;;1.67;;
505;SDS011;551;48.524;9.056;2022-10-01T16:42:05;1.30;;;1.20;;
505;SDS011;551;48.524;9.056;2022-10-01T16:44:32;2.00;;;1.90;;
505;SDS011;551;48.524;9.056;2022-10-01T16:47:02;1.90;;;1.80;;
505;SDS011;551;48.524;9.056;2022-10-01T16:49:27;1.53;;;1.43;;
505;SDS011;551;48.524;9.056;2022-10-01T16:51:53;1.80;;;1.70;;
505;SDS011;551;48.524;9.056;2022-10-01T16:54:22;1.77;;;1.43;;
505;SDS011;551;48.524;9.056;2022-10-01T16:56:49;1.40;;;1.30;;
505;SDS011;551;48.524;9.056;2022-10-01T16:59:16;2.53;;;1.60;;
505;SDS011;551;48.524;9.056;2022-10-01T17:01:42;2.70;;;1.93;;
505;SDS011;551;48.524;9.056;2022-10-01T17:04:09;3.20;;;2.27;;
505;SDS011;551;48.524;9.056;2022-10-01T17:06:37;2.07;;;1.83;;
505;SDS011;551;48.524;9.056;2022-10-01T17:09:03;1.60;;;1.50;;
505;SDS011;551;48.524;9.056;2022-10-01T17:11:28;2.90;;;2.13;;
505;SDS011;551;48.524;9.056;2022-10-01T17:13:54;2.87;;;2.40;;
505;SDS011;551;48.524;9.056;2022-10-01T17:16:19;3.10;;;1.90;;
505;SDS011;551;48.524;9.056;2022-10-01T17:18:45;2.13;;;1.93;;
505;SDS011;551;48.524;9.056;2022-10-01T17:21:10;2.53;;;1.87;;
505;SDS011;551;48.524;9.056;2022-10-01T17:23:39;1.50;;;1.40;;
505;SDS011;551;48.524;9.056;2022-10-01T17:26:05;1.50;;;1.40;;
505;SDS011;551;48.524;9.056;2022-10-01T17:28:32;1.60;;;1.50;;
505;SDS011;551;48.524;9.056;2022-10-01T17:30:58;1.50;;;1.40;;
505;SDS011;551;48.524;9.056;2022-10-01T17:33:23;2.23;;;1.60;;
505;SDS011;551;48.524;9.056;2022-10-01T17:35:52;1.30;;;1.20;;
505;SDS011;551;48.524;9.056;2022-10-01T17:38:19;2.03;;;1.60;;
505;SDS011;551;48.524;9.056;2022-10-01T17:40:46;2.60;;;1.40;;
505;SDS011;551;48.524;9.056;2022-10-01T17:43:13;2.23;;;1.33;;
505;SDS011;551;48.524;9.056;2022-10-01T17:45:40;1.40;;;1.30;;
505;SDS011;551;48.524;9.056;2022-10-01T17:48:06;1.80;;;1.70;;
505;SDS011;551;48.524;9.056;2022-10-01T17:50:32;1.60;;;1.50;;
505;SDS011;551;48.524;9.056;2022-10-01T17:52:59;2.07;;;1.87;;
505;SDS011;551;48.524;9.056;2022-10-01T17:55:25;1.97;;;1.73;;
505;SDS011;551;48.524;9.056;2022-10-01T17:57:51;1.63;;;1.40;;
505;SDS011;551;48.524;9.056;2022-10-01T18:00:17;1.53;;;1.43;;
505;SDS011;551;48.524;9.056;2022-10-01T18:02:43;1.87;;;1.27;;
505;SDS011;551;48.524;9.056;2022-10-01T18:05:11;2.27;;;2.07;;
505;SDS011;551;48.524;9.056;2022-10-01T18:07:39;3.40;;;2.93;;
505;SDS011;551;48.524;9.056;2022-10-01T18:10:06;3.30;;;1.83;;
505;SDS011;551;48.524;9.056;2022-10-01T18:12:33;3.13;;;2.30;;